sensor_id;sensor_type;location;lat;lon;timestamp;temperature;humidity
55203;DHT22;41077;52.956;6.796;2022-11-27T00:00:59;6.80;99.90
55203;DHT22;41077;52.956;6.796;2022-11-27T00:03:25;6.80;99.90
55203;DHT22;41077;52.956;6.796;2022-11-27T00:05:55;6.80;99.90
55203;DHT22;41077;52.956;6.796;2022-11-27T00:08:23;6.80;99.90
55203;DHT22;41077;52.956;6.796;2022-11-27T00:10:49;6.80;99.90
55203;DHT22;41077;52.956;6.796;2022-11-27T00:13:14;6.70;99.90
55203;DHT22;41077;52.956;6.796;2022-11-27T00:15:40;6.70;99.90
55203;DHT22;41077;52.956;6.796;2022-11-27T00:18:06;6.70;99.90
55203;DHT22;41077;52.956;6.796;2022-11-27T00:20:31;6.70;99.90
55203;DHT22;41077;52.956;6.796;2022-11-27T00:22:57;6.70;99.90
55203;DHT22;41077;52.956;6.796;2022-11-27T00:25:23;6.70;99.90
55203;DHT22;41077;52.956;6.796;2022-11-27T00:27:48;6.80;99.90
55203;DHT22;41077;52.956;6.796;2022-11-27T00:30:14;6.70;99.90
55203;DHT22;41077;52.956;6.796;2022-11-27T00:32:40;6.70;99.90
55203;DHT22;41077;52.956;6.796;2022-11-27T00:35:06;6.80;99.90
55203;DHT22;41077;52.956;6.796;2022-11-27T00:37:32;6.80;99.90
55203;DHT22;41077;52.956;6.796;2022-11-27T00:39:58;6.70;99.90
55203;DHT22;41077;52.956;6.796;2022-11-27T00:42:23;6.70;99.90
55203;DHT22;41077;52.956;6.796;2022-11-27T00:44:49;6.70;99.90
55203;DHT22;41077;52.956;6.796;2022-11-27T00:47:15;6.70;99.90
55203;DHT22;41077;52.956;6.796;2022-11-27T00:49:41;6.70;99.90
55203;DHT22;41077;52.956;6.796;2022-11-27T00:52:07;6.70;99.90
55203;DHT22;41077;52.956;6.796;2022-11-27T00:54:33;6.70;99.90
55203;DHT22;41077;52.956;6.796;2022-11-27T00:56:58;6.70;99.90
55203;DHT22;41077;52.956;6.796;2022-11-27T00:59:24;6.60;99.90
55203;DHT22;41077;52.956;6.796;2022-11-27T01:01:51;6.60;99.90
55203;DHT22;41077;52.956;6.796;2022-11-27T01:04:16;6.60;99.90
55203;DHT22;41077;52.956;6.796;2022-11-27T01:06:43;6.60;99.90
55203;DHT22;41077;52.956;6.796;2022-11-27T01:09:12;6.50;99.90
55203;DHT22;41077;52.956;6.796;2022-11-27T01:11:39;6.50;99.90
55203;DHT22;41077;52.956;6.796;2022-11-27T01:14:11;6.50;99.90
55203;DHT22;41077;52.956;6.796;2022-11-27T01:16:37;6.40;99.90
55203;DHT22;41077;52.956;6.796;2022-11-27T01:19:03;6.30;99.90
55203;DHT22;41077;52.956;6.796;2022-11-27T01:21:32;6.30;99.90
55203;DHT22;41077;52.956;6.796;2022-11-27T01:23:58;6.30;99.90
55203;DHT22;41077;52.956;6.796;2022-11-27T01:26:24;6.30;99.90
55203;DHT22;41077;52.956;6.796;2022-11-27T01:28:51;6.40;99.90
55203;DHT22;41077;52.956;6.796;2022-11-27T01:31:21;6.30;99.90
55203;DHT22;41077;52.956;6.796;2022-11-27T01:33:50;6.20;99.90
55203;DHT22;41077;52.956;6.796;2022-11-27T01:36:16;6.20;99.90
55203;DHT22;41077;52.956;6.796;2022-11-27T01:38:42;6.20;99.90
55203;DHT22;41077;52.956;6.796;2022-11-27T01:41:13;6.20;99.90
55203;DHT22;41077;52.956;6.796;2022-11-27T01:43:46;6.20;99.90
55203;DHT22;41077;52.956;6.796;2022-11-27T01:46:36;6.20;99.90
55203;DHT22;41077;52.956;6.796;2022-11-27T01:51:38;6.10;99.90
55203;DHT22;41077;52.956;6.796;2022-11-27T01:54:07;6.10;99.90
55203;DHT22;41077;52.956;6.796;2022-11-27T01:56:33;6.00;99.90
55203;DHT22;41077;52.956;6.796;2022-11-27T01:58:59;6.00;99.90
55203;DHT22;41077;52.956;6.796;2022-11-27T02:01:25;6.00;99.90
55203;DHT22;41077;52.956;6.796;2022-11-27T02:03:52;6.00;99.90
55203;DHT22;41077;52.956;6.796;2022-11-27T02:06:19;6.00;99.90
55203;DHT22;41077;52.956;6.796;2022-11-27T02:08:44;6.00;99.90
55203;DHT22;41077;52.956;6.796;2022-11-27T02:11:30;6.00;99.90
55203;DHT22;41077;52.956;6.796;2022-11-27T02:14:18;6.00;99.90
55203;DHT22;41077;52.956;6.796;2022-11-27T02:16:52;5.90;99.90
55203;DHT22;41077;52.956;6.796;2022-11-27T02:20:01;5.90;99.90
55203;DHT22;41077;52.956;6.796;2022-11-27T02:31:22;5.80;99.90
55203;DHT22;41077;52.956;6.796;2022-11-27T02:33:53;5.80;99.90
55203;DHT22;41077;52.956;6.796;2022-11-27T02:36:23;5.80;99.90
55203;DHT22;41077;52.956;6.796;2022-11-27T02:38:55;5.80;99.90
55203;DHT22;41077;52.956;6.796;2022-11-27T02:41:24;5.80;99.90
55203;DHT22;41077;52.956;6.796;2022-11-27T02:43:51;5.80;99.90
55203;DHT22;41077;52.956;6.796;2022-11-27T02:46:19;5.80;99.90
55203;DHT22;41077;52.956;6.796;2022-11-27T02:48:48;5.80;99.90
55203;DHT22;41077;52.956;6.796;2022-11-27T02:51:18;5.80;99.90
55203;DHT22;41077;52.956;6.796;2022-11-27T02:53:50;5.80;99.90
55203;DHT22;41077;52.956;6.796;2022-11-27T02:56:28;5.80;99.90
55203;DHT22;41077;52.956;6.796;2022-11-27T02:58:58;5.80;99.90
55203;DHT22;41077;52.956;6.796;2022-11-27T03:01:27;5.80;99.90
55203;DHT22;41077;52.956;6.796;2022-11-27T03:03:55;5.70;99.90
55203;DHT22;41077;52.956;6.796;2022-11-27T03:06:26;5.70;99.90
55203;DHT22;41077;52.956;6.796;2022-11-27T03:09:02;5.70;99.90
55203;DHT22;41077;52.956;6.796;2022-11-27T03:11:28;5.70;99.90
55203;DHT22;41077;52.956;6.796;2022-11-27T03:14:00;5.70;99.90
55203;DHT22;41077;52.956;6.796;2022-11-27T03:16:42;5.70;99.90
55203;DHT22;41077;52.956;6.796;2022-11-27T03:21:59;5.70;99.90
55203;DHT22;41077;52.956;6.796;2022-11-27T03:24:27;5.70;99.90
55203;DHT22;41077;52.956;6.796;2022-11-27T03:26:54;5.70;99.90
55203;DHT22;41077;52.956;6.796;2022-11-27T03:29:26;5.70;99.90
55203;DHT22;41077;52.956;6.796;2022-11-27T03:31:55;5.70;99.90
55203;DHT22;41077;52.956;6.796;2022-11-27T03:34:21;5.80;99.90
55203;DHT22;41077;52.956;6.796;2022-11-27T03:36:47;5.70;99.90
55203;DHT22;41077;52.956;6.796;2022-11-27T03:39:13;5.70;99.90
55203;DHT22;41077;52.956;6.796;2022-11-27T03:44:30;5.80;99.90
55203;DHT22;41077;52.956;6.796;2022-11-27T03:47:20;5.80;99.90
55203;DHT22;41077;52.956;6.796;2022-11-27T03:55:28;5.80;99.90
55203;DHT22;41077;52.956;6.796;2022-11-27T03:58:00;5.80;99.90
55203;DHT22;41077;52.956;6.796;2022-11-27T04:00:35;5.80;99.90
55203;DHT22;41077;52.956;6.796;2022-11-27T04:03:02;5.80;99.90
55203;DHT22;41077;52.956;6.796;2022-11-27T04:05:28;5.80;99.90
55203;DHT22;41077;52.956;6.796;2022-11-27T04:07:54;5.70;99.90
55203;DHT22;41077;52.956;6.796;2022-11-27T04:10:20;5.80;99.90
55203;DHT22;41077;52.956;6.796;2022-11-27T04:12:46;5.70;99.90
55203;DHT22;41077;52.956;6.796;2022-11-27T04:15:12;5.70;99.90
55203;DHT22;41077;52.956;6.796;2022-11-27T04:17:38;5.70;99.90
55203;DHT22;41077;52.956;6.796;2022-11-27T04:20:04;5.80;99.90
55203;DHT22;41077;52.956;6.796;2022-11-27T04:22:31;5.80;99.90
55203;DHT22;41077;52.956;6.796;2022-11-27T04:24:56;5.80;99.90
55203;DHT22;41077;52.956;6.796;2022-11-27T04:27:22;5.80;99.90
55203;DHT22;41077;52.956;6.796;2022-11-27T04:29:48;5.70;99.90
55203;DHT22;41077;52.956;6.796;2022-11-27T04:32:13;5.80;99.90
55203;DHT22;41077;52.956;6.796;2022-11-27T04:34:39;5.80;99.90
55203;DHT22;41077;52.956;6.796;2022-11-27T04:37:05;5.80;99.90
55203;DHT22;41077;52.956;6.796;2022-11-27T04:39:30;5.70;99.90
55203;DHT22;41077;52.956;6.796;2022-11-27T04:41:56;5.80;99.90
55203;DHT22;41077;52.956;6.796;2022-11-27T04:44:21;5.80;99.90
55203;DHT22;41077;52.956;6.796;2022-11-27T04:46:48;5.80;99.90
55203;DHT22;41077;52.956;6.796;2022-11-27T04:49:14;5.70;99.90
55203;DHT22;41077;52.956;6.796;2022-11-27T04:51:40;5.80;99.90
55203;DHT22;41077;52.956;6.796;2022-11-27T04:54:05;5.70;99.90
55203;DHT22;41077;52.956;6.796;2022-11-27T04:56:31;5.70;99.90
55203;DHT22;41077;52.956;6.796;2022-11-27T04:58:57;5.70;99.90
55203;DHT22;41077;52.956;6.796;2022-11-27T05:01:23;5.70;99.90
55203;DHT22;41077;52.956;6.796;2022-11-27T05:03:48;5.70;99.90
55203;DHT22;41077;52.956;6.796;2022-11-27T05:06:14;5.70;99.90
55203;DHT22;41077;52.956;6.796;2022-11-27T05:08:40;5.70;99.90
55203;DHT22;41077;52.956;6.796;2022-11-27T05:11:09;5.70;99.90
55203;DHT22;41077;52.956;6.796;2022-11-27T05:13:36;5.70;99.90
55203;DHT22;41077;52.956;6.796;2022-11-27T05:16:02;5.70;99.90
55203;DHT22;41077;52.956;6.796;2022-11-27T05:18:28;5.60;99.90
55203;DHT22;41077;52.956;6.796;2022-11-27T05:20:58;5.70;99.90
55203;DHT22;41077;52.956;6.796;2022-11-27T05:23:25;5.60;99.90
55203;DHT22;41077;52.956;6.796;2022-11-27T05:25:51;5.60;99.90
55203;DHT22;41077;52.956;6.796;2022-11-27T05:28:17;5.60;99.90
55203;DHT22;41077;52.956;6.796;2022-11-27T05:30:43;5.60;99.90
55203;DHT22;41077;52.956;6.796;2022-11-27T05:33:08;5.60;99.90
55203;DHT22;41077;52.956;6.796;2022-11-27T05:35:34;5.60;99.90
55203;DHT22;41077;52.956;6.796;2022-11-27T05:38:00;5.60;99.90
55203;DHT22;41077;52.956;6.796;2022-11-27T05:40:25;5.60;99.90
55203;DHT22;41077;52.956;6.796;2022-11-27T05:42:51;5.60;99.90
55203;DHT22;41077;52.956;6.796;2022-11-27T05:45:17;5.60;99.90
55203;DHT22;41077;52.956;6.796;2022-11-27T05:47:42;5.60;99.90
55203;DHT22;41077;52.956;6.796;2022-11-27T05:50:08;5.60;99.90
55203;DHT22;41077;52.956;6.796;2022-11-27T05:52:34;5.60;99.90
55203;DHT22;41077;52.956;6.796;2022-11-27T05:54:59;5.50;99.90
55203;DHT22;41077;52.956;6.796;2022-11-27T05:57:25;5.50;99.90
55203;DHT22;41077;52.956;6.796;2022-11-27T05:59:51;5.50;99.90
55203;DHT22;41077;52.956;6.796;2022-11-27T06:02:16;5.50;99.90
55203;DHT22;41077;52.956;6.796;2022-11-27T06:04:42;5.50;99.90
55203;DHT22;41077;52.956;6.796;2022-11-27T06:07:07;5.50;99.90
55203;DHT22;41077;52.956;6.796;2022-11-27T06:09:35;5.50;99.90
55203;DHT22;41077;52.956;6.796;2022-11-27T06:12:01;5.50;99.90
55203;DHT22;41077;52.956;6.796;2022-11-27T06:14:27;5.50;99.90
55203;DHT22;41077;52.956;6.796;2022-11-27T06:16:53;5.50;99.90
55203;DHT22;41077;52.956;6.796;2022-11-27T06:19:18;5.50;99.90
55203;DHT22;41077;52.956;6.796;2022-11-27T06:21:44;5.50;99.90
55203;DHT22;41077;52.956;6.796;2022-11-27T06:24:10;5.50;99.90
55203;DHT22;41077;52.956;6.796;2022-11-27T06:26:36;5.50;99.90
55203;DHT22;41077;52.956;6.796;2022-11-27T06:29:02;5.50;99.90
55203;DHT22;41077;52.956;6.796;2022-11-27T06:31:30;5.50;99.90
55203;DHT22;41077;52.956;6.796;2022-11-27T06:33:57;5.50;99.90
55203;DHT22;41077;52.956;6.796;2022-11-27T06:36:26;5.50;99.90
55203;DHT22;41077;52.956;6.796;2022-11-27T06:38:52;5.50;99.90
55203;DHT22;41077;52.956;6.796;2022-11-27T06:41:21;5.40;99.90
55203;DHT22;41077;52.956;6.796;2022-11-27T06:43:48;5.40;99.90
55203;DHT22;41077;52.956;6.796;2022-11-27T06:46:16;5.50;99.90
55203;DHT22;41077;52.956;6.796;2022-11-27T06:48:43;5.40;99.90
55203;DHT22;41077;52.956;6.796;2022-11-27T06:51:12;5.40;99.90
55203;DHT22;41077;52.956;6.796;2022-11-27T06:53:39;5.40;99.90
55203;DHT22;41077;52.956;6.796;2022-11-27T06:56:06;5.40;99.90
55203;DHT22;41077;52.956;6.796;2022-11-27T06:58:34;5.40;99.90
55203;DHT22;41077;52.956;6.796;2022-11-27T07:01:06;5.40;99.90
55203;DHT22;41077;52.956;6.796;2022-11-27T07:03:32;5.40;99.90
55203;DHT22;41077;52.956;6.796;2022-11-27T07:06:02;5.40;99.90
55203;DHT22;41077;52.956;6.796;2022-11-27T07:08:29;5.40;99.90
55203;DHT22;41077;52.956;6.796;2022-11-27T07:11:11;5.50;99.90
55203;DHT22;41077;52.956;6.796;2022-11-27T07:13:36;5.40;99.90
55203;DHT22;41077;52.956;6.796;2022-11-27T07:16:08;5.40;99.90
55203;DHT22;41077;52.956;6.796;2022-11-27T07:18:41;5.50;99.90
55203;DHT22;41077;52.956;6.796;2022-11-27T07:21:08;5.40;99.90
55203;DHT22;41077;52.956;6.796;2022-11-27T07:23:34;5.50;99.90
55203;DHT22;41077;52.956;6.796;2022-11-27T07:26:38;5.50;99.90
55203;DHT22;41077;52.956;6.796;2022-11-27T07:29:04;5.40;99.90
55203;DHT22;41077;52.956;6.796;2022-11-27T07:31:30;5.40;99.90
55203;DHT22;41077;52.956;6.796;2022-11-27T07:33:56;5.50;99.90
55203;DHT22;41077;52.956;6.796;2022-11-27T07:36:24;5.50;99.90
55203;DHT22;41077;52.956;6.796;2022-11-27T07:38:51;5.50;99.90
55203;DHT22;41077;52.956;6.796;2022-11-27T07:41:17;5.50;99.90
55203;DHT22;41077;52.956;6.796;2022-11-27T07:43:44;5.50;99.90
55203;DHT22;41077;52.956;6.796;2022-11-27T07:46:13;5.50;99.90
55203;DHT22;41077;52.956;6.796;2022-11-27T07:48:39;5.60;99.90
55203;DHT22;41077;52.956;6.796;2022-11-27T07:51:09;5.60;99.90
55203;DHT22;41077;52.956;6.796;2022-11-27T07:53:36;5.50;99.90
55203;DHT22;41077;52.956;6.796;2022-11-27T07:56:04;5.50;99.90
55203;DHT22;41077;52.956;6.796;2022-11-27T07:58:29;5.50;99.90
55203;DHT22;41077;52.956;6.796;2022-11-27T08:00:55;5.60;99.90
55203;DHT22;41077;52.956;6.796;2022-11-27T08:03:21;5.60;99.90
55203;DHT22;41077;52.956;6.796;2022-11-27T08:05:47;5.60;99.90
55203;DHT22;41077;52.956;6.796;2022-11-27T08:08:13;5.60;99.90
55203;DHT22;41077;52.956;6.796;2022-11-27T08:10:39;5.60;99.90
55203;DHT22;41077;52.956;6.796;2022-11-27T08:13:05;5.60;99.90
55203;DHT22;41077;52.956;6.796;2022-11-27T08:15:32;5.60;99.90
55203;DHT22;41077;52.956;6.796;2022-11-27T08:17:57;5.70;99.90
55203;DHT22;41077;52.956;6.796;2022-11-27T08:20:23;5.70;99.90
55203;DHT22;41077;52.956;6.796;2022-11-27T08:22:49;5.70;99.90
55203;DHT22;41077;52.956;6.796;2022-11-27T08:25:15;5.70;99.90
55203;DHT22;41077;52.956;6.796;2022-11-27T08:27:41;5.70;99.90
55203;DHT22;41077;52.956;6.796;2022-11-27T08:30:07;5.80;99.90
55203;DHT22;41077;52.956;6.796;2022-11-27T08:32:33;5.80;99.90
55203;DHT22;41077;52.956;6.796;2022-11-27T08:34:59;5.80;99.90
55203;DHT22;41077;52.956;6.796;2022-11-27T08:37:25;5.90;99.90
55203;DHT22;41077;52.956;6.796;2022-11-27T08:39:50;5.80;99.90
55203;DHT22;41077;52.956;6.796;2022-11-27T08:42:16;5.90;99.90
55203;DHT22;41077;52.956;6.796;2022-11-27T08:44:42;5.90;99.90
55203;DHT22;41077;52.956;6.796;2022-11-27T08:47:07;5.90;99.90
55203;DHT22;41077;52.956;6.796;2022-11-27T08:49:33;5.90;99.90
55203;DHT22;41077;52.956;6.796;2022-11-27T08:51:59;5.90;99.90
55203;DHT22;41077;52.956;6.796;2022-11-27T08:54:24;5.90;99.90
55203;DHT22;41077;52.956;6.796;2022-11-27T08:56:51;5.90;99.90
55203;DHT22;41077;52.956;6.796;2022-11-27T08:59:17;5.90;99.90
55203;DHT22;41077;52.956;6.796;2022-11-27T09:01:42;5.90;99.90
55203;DHT22;41077;52.956;6.796;2022-11-27T09:04:09;6.00;99.90
55203;DHT22;41077;52.956;6.796;2022-11-27T09:06:34;5.90;99.90
55203;DHT22;41077;52.956;6.796;2022-11-27T09:09:04;6.00;99.90
55203;DHT22;41077;52.956;6.796;2022-11-27T09:11:31;5.90;99.90
55203;DHT22;41077;52.956;6.796;2022-11-27T09:14:01;6.00;99.90
55203;DHT22;41077;52.956;6.796;2022-11-27T09:16:27;6.00;99.90
55203;DHT22;41077;52.956;6.796;2022-11-27T09:18:55;6.00;99.90
55203;DHT22;41077;52.956;6.796;2022-11-27T09:21:22;6.00;99.90
55203;DHT22;41077;52.956;6.796;2022-11-27T09:23:54;6.00;99.90
55203;DHT22;41077;52.956;6.796;2022-11-27T09:26:20;6.00;99.90
55203;DHT22;41077;52.956;6.796;2022-11-27T09:28:48;6.00;99.90
55203;DHT22;41077;52.956;6.796;2022-11-27T09:31:14;6.00;99.90
55203;DHT22;41077;52.956;6.796;2022-11-27T09:33:41;6.00;99.90
55203;DHT22;41077;52.956;6.796;2022-11-27T09:36:13;6.00;99.90
55203;DHT22;41077;52.956;6.796;2022-11-27T09:38:39;6.10;99.90
55203;DHT22;41077;52.956;6.796;2022-11-27T09:43:54;6.00;99.90
55203;DHT22;41077;52.956;6.796;2022-11-27T09:46:44;6.10;99.90
55203;DHT22;41077;52.956;6.796;2022-11-27T09:49:31;6.10;99.90
55203;DHT22;41077;52.956;6.796;2022-11-27T09:52:39;6.10;99.90
55203;DHT22;41077;52.956;6.796;2022-11-27T09:57:40;6.10;99.90
55203;DHT22;41077;52.956;6.796;2022-11-27T10:02:42;6.00;99.90
55203;DHT22;41077;52.956;6.796;2022-11-27T10:05:22;6.00;99.90
55203;DHT22;41077;52.956;6.796;2022-11-27T10:21:54;6.00;99.90
55203;DHT22;41077;52.956;6.796;2022-11-27T10:25:27;6.00;99.90
55203;DHT22;41077;52.956;6.796;2022-11-27T10:27:28;6.00;99.90
55203;DHT22;41077;52.956;6.796;2022-11-27T10:29:56;6.00;99.90
55203;DHT22;41077;52.956;6.796;2022-11-27T10:32:31;5.90;99.90
55203;DHT22;41077;52.956;6.796;2022-11-27T10:38:16;6.00;99.90
55203;DHT22;41077;52.956;6.796;2022-11-27T10:44:01;5.90;99.90
55203;DHT22;41077;52.956;6.796;2022-11-27T10:46:31;5.90;99.90
55203;DHT22;41077;52.956;6.796;2022-11-27T10:49:00;6.00;99.90
55203;DHT22;41077;52.956;6.796;2022-11-27T10:51:34;6.00;99.90
55203;DHT22;41077;52.956;6.796;2022-11-27T10:54:04;6.00;99.90
55203;DHT22;41077;52.956;6.796;2022-11-27T10:59:18;6.10;99.90
55203;DHT22;41077;52.956;6.796;2022-11-27T11:01:48;6.10;99.90
55203;DHT22;41077;52.956;6.796;2022-11-27T11:04:20;6.10;99.90
55203;DHT22;41077;52.956;6.796;2022-11-27T11:06:48;6.10;99.90
55203;DHT22;41077;52.956;6.796;2022-11-27T11:09:21;6.10;99.90
55203;DHT22;41077;52.956;6.796;2022-11-27T11:11:47;6.10;99.90
55203;DHT22;41077;52.956;6.796;2022-11-27T11:14:15;6.10;99.90
55203;DHT22;41077;52.956;6.796;2022-11-27T11:16:42;6.10;99.90
55203;DHT22;41077;52.956;6.796;2022-11-27T11:19:23;6.10;99.90
55203;DHT22;41077;52.956;6.796;2022-11-27T11:21:49;6.10;99.90
55203;DHT22;41077;52.956;6.796;2022-11-27T11:24:29;6.10;99.90
55203;DHT22;41077;52.956;6.796;2022-11-27T11:27:03;6.10;99.90
55203;DHT22;41077;52.956;6.796;2022-11-27T11:29:48;6.10;99.90
55203;DHT22;41077;52.956;6.796;2022-11-27T11:32:36;6.10;99.90
55203;DHT22;41077;52.956;6.796;2022-11-27T11:35:23;6.10;99.90
55203;DHT22;41077;52.956;6.796;2022-11-27T11:37:50;6.10;99.90
55203;DHT22;41077;52.956;6.796;2022-11-27T11:42:55;6.10;99.90
55203;DHT22;41077;52.956;6.796;2022-11-27T11:45:22;6.10;99.90
55203;DHT22;41077;52.956;6.796;2022-11-27T11:47:51;6.10;99.90
55203;DHT22;41077;52.956;6.796;2022-11-27T12:01:41;6.10;99.90
55203;DHT22;41077;52.956;6.796;2022-11-27T12:07:47;6.20;99.90
55203;DHT22;41077;52.956;6.796;2022-11-27T12:21:13;6.30;99.90
55203;DHT22;41077;52.956;6.796;2022-11-27T12:40:55;6.30;99.90
55203;DHT22;41077;52.956;6.796;2022-11-27T12:43:29;6.30;99.90
55203;DHT22;41077;52.956;6.796;2022-11-27T12:46:32;6.40;99.90
55203;DHT22;41077;52.956;6.796;2022-11-27T12:49:17;6.40;99.90
55203;DHT22;41077;52.956;6.796;2022-11-27T12:52:20;6.40;99.90
55203;DHT22;41077;52.956;6.796;2022-11-27T12:57:21;6.40;99.90
55203;DHT22;41077;52.956;6.796;2022-11-27T12:59:58;6.40;99.90
55203;DHT22;41077;52.956;6.796;2022-11-27T13:02:39;6.40;99.90
55203;DHT22;41077;52.956;6.796;2022-11-27T13:05:14;6.40;99.90
55203;DHT22;41077;52.956;6.796;2022-11-27T13:07:52;6.40;99.90
55203;DHT22;41077;52.956;6.796;2022-11-27T13:13:08;6.50;99.90
55203;DHT22;41077;52.956;6.796;2022-11-27T13:21:03;6.50;99.90
55203;DHT22;41077;52.956;6.796;2022-11-27T13:23:31;6.50;99.90
55203;DHT22;41077;52.956;6.796;2022-11-27T13:25:57;6.50;99.90
55203;DHT22;41077;52.956;6.796;2022-11-27T13:28:43;6.50;99.90
55203;DHT22;41077;52.956;6.796;2022-11-27T13:31:26;6.50;99.90
55203;DHT22;41077;52.956;6.796;2022-11-27T13:33:59;6.50;99.90
55203;DHT22;41077;52.956;6.796;2022-11-27T13:36:29;6.50;99.90
55203;DHT22;41077;52.956;6.796;2022-11-27T13:38:59;6.50;99.90
55203;DHT22;41077;52.956;6.796;2022-11-27T13:41:43;6.50;99.90
55203;DHT22;41077;52.956;6.796;2022-11-27T13:44:26;6.50;99.90
55203;DHT22;41077;52.956;6.796;2022-11-27T13:46:57;6.50;99.90
55203;DHT22;41077;52.956;6.796;2022-11-27T13:49:29;6.50;99.90
55203;DHT22;41077;52.956;6.796;2022-11-27T13:52:22;6.50;99.90
55203;DHT22;41077;52.956;6.796;2022-11-27T13:55:02;6.50;99.90
55203;DHT22;41077;52.956;6.796;2022-11-27T13:57:30;6.50;99.90
55203;DHT22;41077;52.956;6.796;2022-11-27T14:00:02;6.50;99.90
55203;DHT22;41077;52.956;6.796;2022-11-27T14:02:45;6.50;99.90
55203;DHT22;41077;52.956;6.796;2022-11-27T14:05:13;6.50;99.90
55203;DHT22;41077;52.956;6.796;2022-11-27T14:07:46;6.50;99.90
55203;DHT22;41077;52.956;6.796;2022-11-27T14:10:25;6.50;99.90
55203;DHT22;41077;52.956;6.796;2022-11-27T14:12:58;6.50;99.90
55203;DHT22;41077;52.956;6.796;2022-11-27T14:15:27;6.50;99.90
55203;DHT22;41077;52.956;6.796;2022-11-27T14:18:06;6.50;99.90
55203;DHT22;41077;52.956;6.796;2022-11-27T14:20:53;6.50;99.90
55203;DHT22;41077;52.956;6.796;2022-11-27T14:23:32;6.50;99.90
55203;DHT22;41077;52.956;6.796;2022-11-27T14:26:05;6.50;99.90
55203;DHT22;41077;52.956;6.796;2022-11-27T14:28:34;6.50;99.90
55203;DHT22;41077;52.956;6.796;2022-11-27T14:31:01;6.50;99.90
55203;DHT22;41077;52.956;6.796;2022-11-27T14:33:29;6.50;99.90
55203;DHT22;41077;52.956;6.796;2022-11-27T14:35:57;6.50;99.90
55203;DHT22;41077;52.956;6.796;2022-11-27T14:38:25;6.50;99.90
55203;DHT22;41077;52.956;6.796;2022-11-27T14:40:52;6.50;99.90
55203;DHT22;41077;52.956;6.796;2022-11-27T14:43:23;6.40;99.90
55203;DHT22;41077;52.956;6.796;2022-11-27T14:45:54;6.50;99.90
55203;DHT22;41077;52.956;6.796;2022-11-27T14:48:25;6.50;99.90
55203;DHT22;41077;52.956;6.796;2022-11-27T14:50:53;6.40;99.90
55203;DHT22;41077;52.956;6.796;2022-11-27T14:53:21;6.40;99.90
55203;DHT22;41077;52.956;6.796;2022-11-27T14:55:48;6.40;99.90
55203;DHT22;41077;52.956;6.796;2022-11-27T14:58:24;6.40;99.90
55203;DHT22;41077;52.956;6.796;2022-11-27T15:01:03;6.40;99.90
55203;DHT22;41077;52.956;6.796;2022-11-27T15:03:29;6.50;99.90
55203;DHT22;41077;52.956;6.796;2022-11-27T15:06:00;6.40;99.90
55203;DHT22;41077;52.956;6.796;2022-11-27T15:08:27;6.40;99.90
55203;DHT22;41077;52.956;6.796;2022-11-27T15:10:57;6.40;99.90
55203;DHT22;41077;52.956;6.796;2022-11-27T15:13:26;6.40;99.90
55203;DHT22;41077;52.956;6.796;2022-11-27T15:15:56;6.40;99.90
55203;DHT22;41077;52.956;6.796;2022-11-27T15:18:23;6.40;99.90
55203;DHT22;41077;52.956;6.796;2022-11-27T15:20:50;6.50;99.90
55203;DHT22;41077;52.956;6.796;2022-11-27T15:23:19;6.50;99.90
55203;DHT22;41077;52.956;6.796;2022-11-27T15:26:31;6.40;99.90
55203;DHT22;41077;52.956;6.796;2022-11-27T15:28:52;6.40;99.90
55203;DHT22;41077;52.956;6.796;2022-11-27T15:33:56;6.50;99.90
55203;DHT22;41077;52.956;6.796;2022-11-27T15:36:22;6.50;99.90
55203;DHT22;41077;52.956;6.796;2022-11-27T15:38:48;6.50;99.90
55203;DHT22;41077;52.956;6.796;2022-11-27T15:43:47;6.50;99.90
55203;DHT22;41077;52.956;6.796;2022-11-27T15:46:13;6.50;99.90
55203;DHT22;41077;52.956;6.796;2022-11-27T15:48:40;6.50;99.90
55203;DHT22;41077;52.956;6.796;2022-11-27T15:51:06;6.50;99.90
55203;DHT22;41077;52.956;6.796;2022-11-27T15:53:31;6.50;99.90
55203;DHT22;41077;52.956;6.796;2022-11-27T15:55:57;6.50;99.90
55203;DHT22;41077;52.956;6.796;2022-11-27T15:58:23;6.50;99.90
55203;DHT22;41077;52.956;6.796;2022-11-27T16:00:48;6.50;99.90
55203;DHT22;41077;52.956;6.796;2022-11-27T16:03:14;6.50;99.90
55203;DHT22;41077;52.956;6.796;2022-11-27T16:05:40;6.50;99.90
55203;DHT22;41077;52.956;6.796;2022-11-27T16:08:06;6.50;99.90
55203;DHT22;41077;52.956;6.796;2022-11-27T16:10:39;6.50;99.90
55203;DHT22;41077;52.956;6.796;2022-11-27T16:13:05;6.50;99.90
55203;DHT22;41077;52.956;6.796;2022-11-27T16:15:31;6.50;99.90
55203;DHT22;41077;52.956;6.796;2022-11-27T16:17:57;6.50;99.90
55203;DHT22;41077;52.956;6.796;2022-11-27T16:20:23;6.50;99.90
55203;DHT22;41077;52.956;6.796;2022-11-27T16:22:49;6.50;99.90
55203;DHT22;41077;52.956;6.796;2022-11-27T16:25:15;6.50;99.90
55203;DHT22;41077;52.956;6.796;2022-11-27T16:27:41;6.50;99.90
55203;DHT22;41077;52.956;6.796;2022-11-27T16:30:07;6.50;99.90
55203;DHT22;41077;52.956;6.796;2022-11-27T16:32:36;6.50;99.90
55203;DHT22;41077;52.956;6.796;2022-11-27T16:35:03;6.50;99.90
55203;DHT22;41077;52.956;6.796;2022-11-27T16:37:29;6.50;99.90
55203;DHT22;41077;52.956;6.796;2022-11-27T16:39:54;6.50;99.90
55203;DHT22;41077;52.956;6.796;2022-11-27T16:42:20;6.50;99.90
55203;DHT22;41077;52.956;6.796;2022-11-27T16:44:45;6.50;99.90
55203;DHT22;41077;52.956;6.796;2022-11-27T16:47:11;6.50;99.90
55203;DHT22;41077;52.956;6.796;2022-11-27T16:49:38;6.50;99.90
55203;DHT22;41077;52.956;6.796;2022-11-27T16:52:03;6.50;99.90
55203;DHT22;41077;52.956;6.796;2022-11-27T16:54:29;6.50;99.90
55203;DHT22;41077;52.956;6.796;2022-11-27T16:56:55;6.50;99.90
55203;DHT22;41077;52.956;6.796;2022-11-27T16:59:20;6.50;99.90
55203;DHT22;41077;52.956;6.796;2022-11-27T17:01:46;6.50;99.90
55203;DHT22;41077;52.956;6.796;2022-11-27T17:04:17;6.50;99.90
55203;DHT22;41077;52.956;6.796;2022-11-27T17:06:44;6.50;99.90
55203;DHT22;41077;52.956;6.796;2022-11-27T17:09:10;6.50;99.90
55203;DHT22;41077;52.956;6.796;2022-11-27T17:11:36;6.50;99.90
55203;DHT22;41077;52.956;6.796;2022-11-27T17:14:06;6.50;99.90
55203;DHT22;41077;52.956;6.796;2022-11-27T17:16:33;6.40;99.90
55203;DHT22;41077;52.956;6.796;2022-11-27T17:18:59;6.50;99.90
55203;DHT22;41077;52.956;6.796;2022-11-27T17:21:27;6.50;99.90
55203;DHT22;41077;52.956;6.796;2022-11-27T17:23:55;6.50;99.90
55203;DHT22;41077;52.956;6.796;2022-11-27T17:26:22;6.50;99.90
55203;DHT22;41077;52.956;6.796;2022-11-27T17:28:49;6.50;99.90
55203;DHT22;41077;52.956;6.796;2022-11-27T17:31:17;6.50;99.90
55203;DHT22;41077;52.956;6.796;2022-11-27T17:33:43;6.50;99.90
55203;DHT22;41077;52.956;6.796;2022-11-27T17:36:09;6.50;99.90
55203;DHT22;41077;52.956;6.796;2022-11-27T17:38:36;6.50;99.90
55203;DHT22;41077;52.956;6.796;2022-11-27T17:41:03;6.50;99.90
55203;DHT22;41077;52.956;6.796;2022-11-27T17:43:30;6.50;99.90
55203;DHT22;41077;52.956;6.796;2022-11-27T17:45:57;6.50;99.90
55203;DHT22;41077;52.956;6.796;2022-11-27T17:48:23;6.50;99.90
55203;DHT22;41077;52.956;6.796;2022-11-27T17:50:49;6.50;99.90
55203;DHT22;41077;52.956;6.796;2022-11-27T17:53:15;6.50;99.90